Air Resources Laboratory banner image
Air Resources Laboratory web site National Oceanic and Atmospheric Administration (NOAA)

ct metar


KBDL 200551Z 00000KT 1/4SM R06/2600V4000FT FG VV002 07/07 A3028 RMK AO2 SFC VIS
 1/2 SLP256 60006 T00720072 10072 20061 56013=
KBDR 200552Z AUTO 00000KT 1/4SM FG VV002 07/07 A3030 RMK AO2 SLP260 60011
 T00720067 10072 20061 58014=
KDXR 200553Z AUTO 16003KT 1/4SM FG VV002 A3029 RMK AO2 SLPNO 60005 56013 $=
KGON 200556Z AUTO 20011KT 1 3/4SM R05/5000VP6000FT BR OVC004 09/08 A3030 RMK
 AO2 SLP261 60000 T00890083 10100 20061 58021 $=
KHFD 200553Z AUTO 00000KT 3/4SM BR OVC003 08/08 A3028 RMK AO2 SLP253 P0001
 60007 T00830078 10089 20072 58002=
KHVN 200553Z AUTO 18004KT 1/4SM R02/1600V2000FT FG VV002 07/06 A3030 RMK AO2
 SLP260 60011 T00670061 10072 20056 58013=
KIJD 200552Z AUTO 21008KT 7SM OVC006 11/10 A3029 RMK AO2 RAE12 SLP256 P0000
 60012 T01110100 10111 20078 58018 TSNO=
KMMK 200553Z AUTO 17006KT 1/2SM FG VV002 08/07 A3028 RMK AO2 SLP255 60011
 T00780072 10078 20061 55019=
KOXC 200551Z AUTO 19003KT 1/4SM -RA FG OVC001 07/07 A3028 RMK AO2 SLP271 P0001
 60010 T00670067 10067 20061 58013=